createdAt,value
2023-07-01T00:01:52.903Z,60.23
2023-07-01T00:04:39.810Z,66.07
2023-07-01T00:07:26.844Z,63.46
2023-07-01T00:10:13.424Z,60.62
2023-07-01T00:13:00.424Z,59.18
2023-07-01T00:15:47.090Z,57.32
2023-07-01T00:18:34.423Z,59.78
2023-07-01T00:21:21.226Z,67.05
2023-07-01T00:24:07.515Z,64.18
2023-07-01T00:26:53.937Z,60.23
2023-07-01T00:29:40.628Z,57.11
2023-07-01T00:32:27.521Z,60.11
2023-07-01T00:35:14.624Z,66.36
2023-07-01T00:38:01.385Z,64.24
2023-07-01T00:40:48.727Z,61.09
2023-07-01T00:43:35.606Z,57.80
2023-07-01T00:46:23.231Z,58.34
2023-07-01T00:49:10.094Z,61.02
2023-07-01T00:51:58.146Z,67.76
2023-07-01T00:54:45.657Z,64.37
2023-07-01T00:57:33.931Z,60.76
2023-07-01T01:00:20.620Z,56.98
2023-07-01T01:03:23.005Z,58.20
2023-07-01T01:06:24.884Z,66.40
2023-07-01T01:09:46.054Z,62.76
2023-07-01T01:12:34.713Z,57.48
2023-07-01T01:15:21.686Z,57.25
2023-07-01T01:18:10.984Z,58.76
2023-07-01T01:20:58.600Z,67.44
2023-07-01T01:24:00.073Z,65.52
2023-07-01T01:26:50.377Z,61.10
2023-07-01T01:29:37.084Z,57.42
2023-07-01T01:32:24.283Z,59.77
2023-07-01T01:35:10.916Z,66.09
2023-07-01T01:38:06.646Z,62.97
2023-07-01T01:41:01.763Z,60.20
2023-07-01T01:44:00.052Z,57.25
2023-07-01T01:46:47.663Z,58.97
2023-07-01T01:49:35.669Z,65.99
2023-07-01T01:52:23.746Z,63.82
2023-07-01T01:55:13.197Z,62.04
2023-07-01T01:58:00.698Z,60.56
2023-07-01T02:00:47.948Z,57.15
2023-07-01T02:03:36.638Z,59.43
2023-07-01T02:06:23.416Z,64.11
2023-07-01T02:09:10.127Z,65.92
2023-07-01T02:11:58.517Z,62.40
2023-07-01T02:14:45.897Z,60.33
2023-07-01T02:17:32.243Z,56.73
2023-07-01T02:20:20.116Z,58.96
2023-07-01T02:23:06.958Z,65.31
2023-07-01T02:25:55.193Z,62.56
2023-07-01T02:28:41.496Z,59.82
2023-07-01T02:31:28.480Z,56.60
2023-07-01T02:34:15.803Z,58.90
2023-07-01T02:37:02.492Z,65.23
2023-07-01T02:39:48.982Z,64.71
2023-07-01T02:42:35.497Z,61.45
2023-07-01T02:45:21.958Z,60.04
2023-07-01T02:48:08.815Z,57.55
2023-07-01T02:50:55.404Z,58.57
2023-07-01T02:53:42.480Z,65.98
2023-07-01T02:56:28.995Z,64.43
2023-07-01T02:59:15.940Z,60.45
2023-07-01T03:02:06.340Z,56.64
2023-07-01T03:04:52.736Z,58.76
2023-07-01T03:07:39.881Z,63.90
2023-07-01T03:10:27.051Z,66.19
2023-07-01T03:13:13.389Z,61.80
2023-07-01T03:16:02.226Z,57.50
2023-07-01T03:18:49.078Z,58.89
2023-07-01T03:21:37.572Z,60.22
2023-07-01T03:24:24.138Z,67.79
2023-07-01T03:27:13.879Z,63.49
2023-07-01T03:30:01.382Z,61.08
2023-07-01T03:32:49.238Z,58.96
2023-07-01T03:35:35.842Z,56.39
2023-07-01T03:38:23.200Z,59.29
2023-07-01T03:41:09.838Z,66.01
2023-07-01T03:43:57.514Z,63.30
2023-07-01T03:46:44.087Z,59.28
2023-07-01T03:49:31.511Z,57.28
2023-07-01T03:52:18.156Z,60.37
2023-07-01T03:55:09.108Z,66.66
2023-07-01T03:57:56.045Z,63.89
2023-07-01T04:00:42.426Z,58.92
2023-07-01T04:03:29.192Z,57.04
2023-07-01T04:06:15.793Z,59.05
2023-07-01T04:09:02.116Z,66.03
2023-07-01T04:11:48.891Z,64.10
2023-07-01T04:14:35.609Z,59.58
2023-07-01T04:17:22.176Z,56.62
2023-07-01T04:20:10.899Z,59.64
2023-07-01T04:22:57.774Z,65.75
2023-07-01T04:25:45.475Z,62.67
2023-07-01T04:28:31.843Z,57.21
2023-07-01T04:31:18.281Z,57.74
2023-07-01T04:34:04.978Z,60.51
2023-07-01T04:36:51.467Z,65.65
2023-07-01T04:39:37.904Z,62.57
2023-07-01T04:42:24.568Z,57.90
2023-07-01T04:45:11.102Z,57.49
2023-07-01T04:47:57.605Z,59.51
2023-07-01T04:50:44.560Z,63.60
2023-07-01T04:53:31.239Z,61.35
2023-07-01T04:56:18.170Z,56.73
2023-07-01T04:59:04.883Z,57.86
2023-07-01T05:01:51.746Z,61.44
2023-07-01T05:04:39.256Z,65.80
2023-07-01T05:07:26.224Z,60.98
2023-07-01T05:10:12.995Z,55.63
2023-07-01T05:12:59.280Z,57.94
2023-07-01T05:15:45.968Z,61.70
2023-07-01T05:18:32.255Z,64.12
2023-07-01T05:21:19.040Z,57.22
2023-07-01T05:24:05.699Z,56.74
2023-07-01T05:26:54.003Z,59.36
2023-07-01T05:29:40.324Z,61.02
2023-07-01T05:32:27.364Z,64.27
2023-07-01T05:35:16.307Z,57.90
2023-07-01T05:38:14.081Z,53.99
2023-07-01T05:41:00.827Z,57.52
2023-07-01T05:43:47.343Z,58.27
2023-07-01T05:46:34.372Z,59.12
2023-07-01T05:49:21.249Z,63.40
2023-07-01T05:52:08.068Z,57.95
2023-07-01T05:54:54.527Z,54.09
2023-07-01T05:57:41.226Z,54.75
2023-07-01T06:00:27.741Z,57.60
2023-07-01T06:03:15.732Z,58.87
2023-07-01T06:06:02.788Z,59.31
2023-07-01T06:08:49.432Z,59.70
2023-07-01T06:11:38.247Z,62.83
2023-07-01T06:14:24.695Z,56.53
2023-07-01T06:17:12.680Z,53.22
2023-07-01T06:19:59.350Z,54.64
2023-07-01T06:22:45.844Z,56.02
2023-07-01T06:25:33.428Z,55.94
2023-07-01T06:28:22.724Z,56.42
2023-07-01T06:31:11.498Z,55.78
2023-07-01T06:33:58.251Z,54.75
2023-07-01T06:36:45.162Z,57.74
2023-07-01T06:39:31.994Z,58.74
2023-07-01T06:42:19.518Z,57.63
2023-07-01T06:45:06.819Z,57.91
2023-07-01T06:47:53.748Z,57.53
2023-07-01T06:50:40.106Z,57.96
2023-07-01T06:53:26.657Z,56.12
2023-07-01T06:56:13.517Z,57.91
2023-07-01T06:58:59.900Z,58.01
2023-07-01T07:01:46.473Z,57.44
2023-07-01T07:04:33.430Z,57.44
2023-07-01T07:07:20.260Z,58.80
2023-07-01T07:10:07.598Z,58.85
2023-07-01T07:12:54.238Z,57.69
2023-07-01T07:15:41.785Z,58.02
2023-07-01T07:18:29.564Z,56.05
2023-07-01T07:21:16.587Z,57.68
2023-07-01T07:24:03.400Z,56.17
2023-07-01T07:26:59.359Z,56.63
2023-07-01T07:29:46.061Z,56.33
2023-07-01T07:32:32.867Z,55.81
2023-07-01T07:35:20.288Z,56.06
2023-07-01T07:38:06.764Z,56.76
2023-07-01T07:40:53.050Z,56.52
2023-07-01T07:43:39.611Z,55.06
2023-07-01T07:46:26.170Z,50.75
2023-07-01T07:49:15.037Z,50.38
2023-07-01T07:52:02.774Z,51.66
2023-07-01T07:54:50.372Z,51.33
2023-07-01T07:57:37.885Z,51.41
2023-07-01T08:00:31.761Z,49.91
2023-07-01T08:03:18.534Z,48.33
2023-07-01T08:06:05.303Z,49.51
2023-07-01T08:08:51.892Z,49.88
2023-07-01T08:11:38.647Z,50.60
2023-07-01T08:14:26.628Z,49.41
2023-07-01T08:17:13.573Z,50.33
2023-07-01T08:20:00.183Z,50.29
2023-07-01T08:22:46.877Z,51.33
2023-07-01T08:25:33.740Z,50.25
2023-07-01T08:28:20.221Z,51.09
2023-07-01T08:31:06.931Z,50.68
2023-07-01T08:33:53.676Z,50.61
2023-07-01T08:36:40.361Z,50.87
2023-07-01T08:39:27.296Z,50.67
2023-07-01T08:42:19.906Z,51.25
2023-07-01T08:45:08.434Z,50.72
2023-07-01T08:47:59.157Z,48.38
2023-07-01T08:50:57.384Z,49.91
2023-07-01T08:53:44.444Z,47.68
2023-07-01T08:56:31.517Z,47.73
2023-07-01T08:59:19.436Z,49.19
2023-07-01T09:02:07.547Z,49.36
2023-07-01T09:04:54.108Z,47.36
2023-07-01T09:07:42.682Z,47.18
2023-07-01T09:10:29.286Z,47.04
2023-07-01T09:13:16.987Z,45.70
2023-07-01T09:16:03.739Z,45.18
2023-07-01T09:19:04.491Z,40.64
2023-07-01T09:21:51.446Z,39.50
2023-07-01T09:24:40.902Z,40.84
2023-07-01T09:27:50.542Z,43.39
2023-07-01T09:30:37.848Z,43.48
2023-07-01T09:33:24.617Z,41.82
2023-07-01T09:36:24.565Z,39.87
2023-07-01T09:39:13.646Z,39.48
2023-07-01T09:42:05.896Z,40.51
2023-07-01T09:45:06.165Z,39.26
2023-07-01T09:47:56.347Z,38.84
2023-07-01T09:50:43.332Z,40.30
2023-07-01T09:53:36.033Z,37.55
2023-07-01T09:56:23.347Z,37.98
2023-07-01T09:59:11.656Z,38.57
2023-07-01T10:02:02.961Z,39.34
2023-07-01T10:04:53.591Z,37.49
2023-07-01T10:07:44.827Z,38.35
2023-07-01T10:10:31.862Z,37.75
2023-07-01T10:13:18.486Z,38.11
2023-07-01T10:16:08.022Z,37.39
2023-07-01T10:18:54.786Z,36.48
2023-07-01T10:21:41.857Z,36.64
2023-07-01T10:24:40.740Z,37.85
2023-07-01T10:27:46.126Z,37.06
2023-07-01T10:30:55.296Z,36.21
2023-07-01T10:33:42.109Z,36.66
2023-07-01T10:36:28.681Z,32.62
2023-07-01T10:39:33.837Z,34.81
2023-07-01T10:42:34.438Z,35.33
2023-07-01T10:45:27.039Z,35.24
2023-07-01T10:48:17.529Z,35.28
2023-07-01T10:51:08.767Z,31.22
2023-07-01T10:54:02.213Z,32.23
2023-07-01T10:57:13.654Z,33.58
2023-07-01T11:00:49.349Z,34.23
2023-07-01T11:03:39.129Z,34.83
2023-07-01T11:06:25.939Z,34.57
2023-07-01T11:09:14.225Z,33.00
2023-07-01T11:12:04.536Z,32.20
2023-07-01T11:14:56.593Z,34.23
2023-07-01T11:17:54.147Z,32.37
2023-07-01T11:20:49.554Z,33.30
2023-07-01T11:23:36.058Z,32.69
2023-07-01T11:26:29.976Z,33.71
2023-07-01T11:29:18.910Z,32.88
2023-07-01T11:32:08.219Z,33.24
2023-07-01T11:34:58.589Z,32.95
2023-07-01T11:37:45.413Z,32.06
2023-07-01T11:40:41.476Z,32.17
2023-07-01T11:43:28.640Z,33.29
2023-07-01T11:46:15.320Z,33.90
2023-07-01T11:49:16.554Z,33.64
2023-07-01T11:52:05.576Z,33.84
2023-07-01T11:54:56.808Z,33.41
2023-07-01T11:57:44.332Z,33.80
2023-07-01T12:00:35.325Z,34.00
2023-07-01T12:03:25.673Z,32.33
2023-07-01T12:06:24.174Z,31.86
2023-07-01T12:09:29.854Z,32.54
2023-07-01T12:12:19.648Z,32.19
2023-07-01T12:15:12.451Z,32.15
2023-07-01T12:18:28.580Z,32.95
2023-07-01T12:21:18.913Z,33.39
2023-07-01T12:24:20.796Z,33.53
2023-07-01T12:27:08.256Z,33.24
2023-07-01T12:29:55.636Z,32.32
2023-07-01T12:32:42.244Z,33.55
2023-07-01T12:35:28.959Z,32.63
2023-07-01T12:38:15.895Z,32.18
2023-07-01T12:41:04.062Z,33.07
2023-07-01T12:43:50.534Z,34.15
2023-07-01T12:46:37.440Z,33.79
2023-07-01T12:49:24.090Z,32.43
2023-07-01T12:52:10.518Z,31.15
2023-07-01T12:54:56.874Z,29.61
2023-07-01T12:57:43.846Z,29.77
2023-07-01T13:00:30.551Z,29.75
2023-07-01T13:03:16.909Z,27.46
2023-07-01T13:06:31.892Z,26.06
2023-07-01T13:09:39.543Z,25.85
2023-07-01T13:12:28.900Z,25.87
2023-07-01T13:15:52.662Z,24.11
2023-07-01T13:18:42.712Z,24.08
2023-07-01T13:21:29.575Z,24.93
2023-07-01T13:24:17.343Z,26.08
2023-07-01T13:27:08.391Z,26.77
2023-07-01T13:29:54.929Z,27.61
2023-07-01T13:32:42.281Z,28.08
2023-07-01T13:35:36.016Z,28.79
2023-07-01T13:38:23.803Z,29.71
2023-07-01T13:41:11.118Z,30.29
2023-07-01T13:44:04.178Z,30.00
2023-07-01T13:46:52.937Z,29.76
2023-07-01T13:49:40.486Z,29.35
2023-07-01T13:52:27.794Z,28.24
2023-07-01T13:55:18.870Z,27.60
2023-07-01T13:58:06.516Z,26.91
2023-07-01T14:00:55.129Z,27.25
2023-07-01T14:03:54.728Z,26.90
2023-07-01T14:06:42.202Z,26.08
2023-07-01T14:09:31.013Z,25.37
2023-07-01T14:12:17.999Z,25.45
2023-07-01T14:15:07.987Z,26.15
2023-07-01T14:17:54.929Z,25.20
2023-07-01T14:21:03.644Z,23.92
2023-07-01T14:23:56.477Z,23.13
2023-07-01T14:26:47.201Z,24.49
2023-07-01T14:29:41.988Z,24.38
2023-07-01T14:32:28.850Z,23.53
2023-07-01T14:35:20.683Z,23.26
2023-07-01T14:38:08.425Z,23.01
2023-07-01T14:40:55.294Z,23.09
2023-07-01T14:43:42.465Z,23.11
2023-07-01T14:46:40.833Z,23.28
2023-07-01T14:49:27.769Z,23.02
2023-07-01T14:52:14.778Z,22.61
2023-07-01T14:55:02.917Z,21.50
2023-07-01T14:57:49.883Z,21.78
2023-07-01T15:00:36.756Z,21.60
2023-07-01T15:03:23.536Z,21.89
2023-07-01T15:06:12.372Z,22.49
2023-07-01T15:09:01.412Z,22.81
2023-07-01T15:11:48.272Z,23.43
2023-07-01T15:14:34.800Z,23.24
2023-07-01T15:17:22.600Z,24.38
2023-07-01T15:20:09.881Z,25.44
2023-07-01T15:22:56.705Z,26.67
2023-07-01T15:25:43.902Z,26.88
2023-07-01T15:28:32.068Z,26.31
2023-07-01T15:31:18.710Z,26.75
2023-07-01T15:34:05.128Z,27.72
2023-07-01T15:36:52.089Z,28.19
2023-07-01T15:39:38.782Z,29.10
2023-07-01T15:42:26.304Z,29.44
2023-07-01T15:45:13.484Z,30.34
2023-07-01T15:48:00.621Z,30.97
2023-07-01T15:50:47.440Z,31.05
2023-07-01T15:53:34.844Z,31.59
2023-07-01T15:56:21.671Z,32.06
2023-07-01T15:59:08.984Z,32.14
2023-07-01T16:01:56.658Z,31.48
2023-07-01T16:04:44.803Z,30.52
2023-07-01T16:07:37.484Z,28.85
2023-07-01T16:10:25.783Z,28.17
2023-07-01T16:13:37.879Z,28.41
2023-07-01T16:16:42.902Z,29.23
2023-07-01T16:19:40.771Z,30.41
2023-07-01T16:22:27.891Z,30.98
2023-07-01T16:25:14.780Z,31.60
2023-07-01T16:28:01.448Z,32.60
2023-07-01T16:30:48.697Z,34.26
2023-07-01T16:33:37.155Z,34.56
2023-07-01T16:36:31.308Z,36.31
2023-07-01T16:39:18.980Z,37.28
2023-07-01T16:42:05.970Z,37.15
2023-07-01T16:44:54.876Z,38.11
2023-07-01T16:47:41.245Z,38.03
2023-07-01T16:50:55.223Z,38.33
2023-07-01T16:53:45.102Z,39.31
2023-07-01T16:56:45.874Z,39.19
2023-07-01T16:59:39.750Z,39.92
2023-07-01T17:02:32.196Z,40.56
2023-07-01T17:05:27.862Z,41.32
2023-07-01T17:08:32.532Z,41.71
2023-07-01T17:11:46.861Z,42.17
2023-07-01T17:14:46.478Z,42.65
2023-07-01T17:17:43.148Z,43.33
2023-07-01T17:20:30.164Z,43.55
2023-07-01T17:23:16.745Z,43.49
2023-07-01T17:26:03.458Z,44.51
2023-07-01T17:28:50.176Z,45.14
2023-07-01T17:31:36.899Z,44.89
2023-07-01T17:34:33.817Z,45.94
2023-07-01T17:37:20.104Z,45.04
2023-07-01T17:40:07.641Z,45.06
2023-07-01T17:42:54.638Z,45.69
2023-07-01T17:45:41.390Z,46.73
2023-07-01T17:48:28.172Z,46.37
2023-07-01T17:51:14.540Z,46.21
2023-07-01T17:54:01.072Z,46.90
2023-07-01T17:56:49.365Z,47.65
2023-07-01T17:59:36.076Z,48.55
2023-07-01T18:02:23.202Z,48.00
2023-07-01T18:05:10.719Z,47.62
2023-07-01T18:07:57.855Z,48.13
2023-07-01T18:10:44.503Z,48.48
2023-07-01T18:13:31.368Z,49.20
2023-07-01T18:16:18.027Z,48.72
2023-07-01T18:19:05.034Z,49.83
2023-07-01T18:21:52.232Z,50.02
2023-07-01T18:24:39.075Z,50.34
2023-07-01T18:27:28.485Z,49.91
2023-07-01T18:30:15.686Z,50.55
2023-07-01T18:33:02.673Z,50.92
2023-07-01T18:35:51.196Z,50.81
2023-07-01T18:38:39.801Z,50.56
2023-07-01T18:41:28.920Z,50.43
2023-07-01T18:44:15.733Z,50.99
2023-07-01T18:47:02.240Z,51.74
2023-07-01T18:49:48.825Z,51.86
2023-07-01T18:52:35.635Z,51.59
2023-07-01T18:55:22.383Z,52.01
2023-07-01T18:58:09.822Z,52.32
2023-07-01T19:00:56.581Z,52.72
2023-07-01T19:03:45.091Z,52.06
2023-07-01T19:06:31.897Z,51.88
2023-07-01T19:09:18.636Z,52.10
2023-07-01T19:12:05.883Z,53.19
2023-07-01T19:14:52.124Z,53.59
2023-07-01T19:17:38.697Z,53.31
2023-07-01T19:20:52.135Z,53.00
2023-07-01T19:23:40.029Z,52.76
2023-07-01T19:26:27.204Z,53.29
2023-07-01T19:29:14.418Z,53.92
2023-07-01T19:32:03.516Z,53.29
2023-07-01T19:34:49.981Z,53.26
2023-07-01T19:37:36.300Z,53.60
2023-07-01T19:40:23.411Z,53.36
2023-07-01T19:43:10.900Z,53.41
2023-07-01T19:45:57.548Z,53.19
2023-07-01T19:48:51.521Z,53.44
2023-07-01T19:51:39.943Z,54.02
2023-07-01T19:54:27.350Z,53.90
2023-07-01T19:57:13.942Z,54.87
2023-07-01T20:00:00.832Z,54.13
2023-07-01T20:02:48.841Z,54.25
2023-07-01T20:05:47.700Z,55.01
2023-07-01T20:08:34.642Z,54.35
2023-07-01T20:11:22.190Z,54.86
2023-07-01T20:14:09.129Z,54.96
2023-07-01T20:16:56.086Z,55.07
2023-07-01T20:19:42.726Z,54.98
2023-07-01T20:22:29.456Z,54.53
2023-07-01T20:25:16.291Z,54.57
2023-07-01T20:28:02.821Z,54.36
2023-07-01T20:30:49.660Z,54.17
2023-07-01T20:33:37.078Z,54.05
2023-07-01T20:36:23.788Z,54.19
2023-07-01T20:39:11.401Z,54.12
2023-07-01T20:42:07.397Z,54.04
2023-07-01T20:44:55.209Z,54.11
2023-07-01T20:47:43.840Z,54.15
2023-07-01T20:50:30.748Z,54.14
2023-07-01T20:53:17.333Z,54.44
2023-07-01T20:56:04.074Z,54.32
2023-07-01T20:58:50.435Z,54.52
2023-07-01T21:01:39.584Z,54.55
2023-07-01T21:04:26.263Z,54.65
2023-07-01T21:07:13.097Z,54.69
2023-07-01T21:10:00.118Z,54.72
2023-07-01T21:12:51.238Z,54.95
2023-07-01T21:15:38.556Z,55.13
2023-07-01T21:18:25.057Z,55.34
2023-07-01T21:21:11.696Z,55.47
2023-07-01T21:23:58.237Z,55.54
2023-07-01T21:26:45.591Z,55.66
2023-07-01T21:29:31.766Z,55.88
2023-07-01T21:32:18.285Z,55.98
2023-07-01T21:35:07.055Z,56.24
2023-07-01T21:37:53.386Z,56.37
2023-07-01T21:40:45.014Z,56.18
2023-07-01T21:43:32.837Z,56.15
2023-07-01T21:46:19.518Z,56.07
2023-07-01T21:49:08.202Z,56.03
2023-07-01T21:51:54.828Z,56.12
2023-07-01T21:54:41.470Z,56.33
2023-07-01T21:57:27.709Z,56.17
2023-07-01T22:00:14.863Z,56.05
2023-07-01T22:03:01.372Z,56.17
2023-07-01T22:05:51.720Z,56.19
2023-07-01T22:08:38.567Z,55.94
2023-07-01T22:11:25.596Z,56.16
2023-07-01T22:14:13.312Z,55.91
2023-07-01T22:17:00.072Z,55.58
2023-07-01T22:19:46.255Z,55.37
2023-07-01T22:22:32.633Z,55.27
2023-07-01T22:25:20.308Z,55.08
2023-07-01T22:28:06.913Z,55.01
2023-07-01T22:30:53.477Z,55.13
2023-07-01T22:33:39.972Z,55.26
2023-07-01T22:36:27.065Z,55.19
2023-07-01T22:39:13.839Z,55.50
2023-07-01T22:42:00.202Z,55.25
2023-07-01T22:44:46.376Z,55.56
2023-07-01T22:47:32.816Z,55.48
2023-07-01T22:50:21.547Z,55.86
2023-07-01T22:53:08.447Z,55.91
2023-07-01T22:55:54.669Z,55.90
2023-07-01T22:58:40.965Z,56.30
2023-07-01T23:01:27.387Z,55.94
2023-07-01T23:04:14.323Z,56.62
2023-07-01T23:07:01.179Z,56.30
2023-07-01T23:09:47.793Z,56.29
2023-07-01T23:12:35.549Z,56.64
2023-07-01T23:15:22.476Z,56.94
2023-07-01T23:18:10.331Z,56.73
2023-07-01T23:20:57.227Z,57.20
2023-07-01T23:23:43.662Z,57.23
2023-07-01T23:26:30.133Z,57.30
2023-07-01T23:29:16.354Z,57.71
2023-07-01T23:32:02.911Z,57.32
2023-07-01T23:34:51.634Z,57.75
2023-07-01T23:37:38.404Z,57.66
2023-07-01T23:40:24.960Z,57.94
2023-07-01T23:43:11.616Z,58.52
2023-07-01T23:45:58.144Z,57.98
2023-07-01T23:48:44.407Z,58.71
2023-07-01T23:51:30.966Z,58.50
2023-07-01T23:54:17.544Z,58.79
2023-07-01T23:57:04.190Z,58.79
2023-07-01T23:59:50.880Z,59.23
